createdAt,value
2018-05-17T00:02:44.075Z,72.10
2018-05-17T00:06:49.668Z,72.60
2018-05-17T00:11:02.180Z,72.70
2018-05-17T00:15:13.133Z,72.90
2018-05-17T00:19:22.004Z,73.20
2018-05-17T00:23:27.691Z,73.70
2018-05-17T00:27:38.795Z,73.10
2018-05-17T00:31:47.990Z,74.70
2018-05-17T00:35:58.188Z,74.70
2018-05-17T00:40:08.143Z,75.00
2018-05-17T00:44:14.607Z,74.40
2018-05-17T00:48:27.146Z,75.00
2018-05-17T00:52:33.301Z,74.80
2018-05-17T00:56:43.198Z,75.60
2018-05-17T01:00:53.827Z,74.70
2018-05-17T01:05:03.297Z,75.80
2018-05-17T01:09:12.619Z,76.10
2018-05-17T01:13:22.459Z,75.00
2018-05-17T01:17:29.184Z,75.20
2018-05-17T01:21:35.921Z,75.00
2018-05-17T01:25:48.136Z,75.00
2018-05-17T01:29:59.200Z,74.80
2018-05-17T01:34:07.465Z,77.20
2018-05-17T01:38:23.283Z,78.10
2018-05-17T01:42:27.618Z,77.40
2018-05-17T01:46:35.917Z,77.40
2018-05-17T01:50:42.183Z,76.80
2018-05-17T01:54:52.737Z,77.00
2018-05-17T01:59:01.970Z,76.50
2018-05-17T02:03:08.461Z,76.60
2018-05-17T02:07:19.560Z,76.30
2018-05-17T02:11:26.420Z,77.30
2018-05-17T02:15:35.867Z,77.30
2018-05-17T02:19:46.477Z,76.20
2018-05-17T02:23:53.504Z,77.10
2018-05-17T02:28:02.725Z,77.20
2018-05-17T02:32:11.882Z,76.30
2018-05-17T02:36:18.232Z,76.10
2018-05-17T02:40:30.956Z,76.10
2018-05-17T02:44:40.771Z,75.80
2018-05-17T02:48:49.548Z,76.00
2018-05-17T02:52:59.581Z,76.10
2018-05-17T02:57:06.052Z,76.30
2018-05-17T03:01:19.452Z,75.90
2018-05-17T03:05:25.138Z,75.80
2018-05-17T03:09:38.165Z,75.90
2018-05-17T03:13:45.882Z,75.90
2018-05-17T03:17:51.671Z,76.20
2018-05-17T03:22:01.430Z,75.90
2018-05-17T03:26:11.262Z,75.30
2018-05-17T03:30:17.767Z,74.80
2018-05-17T03:39:11.117Z,74.80
2018-05-17T03:43:15.603Z,74.30
2018-05-17T03:47:26.509Z,74.80
2018-05-17T03:51:36.759Z,74.80
2018-05-17T03:55:42.316Z,74.30
2018-05-17T03:59:54.133Z,75.50
2018-05-17T04:04:08.907Z,75.40
2018-05-17T04:08:11.592Z,74.40
2018-05-17T04:12:17.948Z,74.80
2018-05-17T04:16:28.170Z,75.00
2018-05-17T04:20:37.276Z,75.30
2018-05-17T04:24:44.403Z,74.70
2018-05-17T04:28:50.649Z,74.60
2018-05-17T04:33:02.919Z,74.10
2018-05-17T04:37:13.055Z,73.20
2018-05-17T04:41:19.569Z,73.20
2018-05-17T04:45:29.387Z,73.10
2018-05-17T04:49:38.813Z,73.00
2018-05-17T04:53:44.765Z,72.80
2018-05-17T04:57:59.976Z,72.30
2018-05-17T05:02:05.930Z,72.00
2018-05-17T05:06:11.814Z,72.50
2018-05-17T05:10:21.542Z,71.40
2018-05-17T05:14:31.014Z,71.20
2018-05-17T05:18:40.433Z,71.90
2018-05-17T05:22:44.965Z,72.00
2018-05-17T05:26:53.769Z,72.00
2018-05-17T05:31:06.908Z,71.00
2018-05-17T05:35:16.407Z,70.90
2018-05-17T05:39:25.618Z,70.30
2018-05-17T05:43:32.643Z,69.80
2018-05-17T05:47:42.699Z,69.90
2018-05-17T05:51:49.144Z,70.60
2018-05-17T05:55:59.775Z,69.90
2018-05-17T06:00:05.926Z,69.00
2018-05-17T06:04:16.500Z,68.70
2018-05-17T06:08:25.577Z,68.70
2018-05-17T06:12:35.115Z,68.90
2018-05-17T06:16:44.645Z,69.60
2018-05-17T06:20:50.914Z,69.20
2018-05-17T06:25:00.674Z,68.60
2018-05-17T06:29:07.966Z,68.00
2018-05-17T06:33:19.043Z,67.90
2018-05-17T06:37:27.979Z,68.30
2018-05-17T06:41:34.050Z,67.30
2018-05-17T06:45:45.202Z,66.10
2018-05-17T06:49:55.115Z,66.20
2018-05-17T06:54:05.970Z,65.10
2018-05-17T06:58:17.499Z,66.30
2018-05-17T07:02:28.489Z,66.00
2018-05-17T07:06:35.172Z,65.00
2018-05-17T07:10:45.720Z,66.90
2018-05-17T07:14:55.699Z,66.90
2018-05-17T07:19:05.119Z,68.00
2018-05-17T07:23:09.517Z,67.30
2018-05-17T07:27:18.702Z,67.30
2018-05-17T07:31:28.225Z,66.80
2018-05-17T07:35:39.448Z,66.30
2018-05-17T07:39:46.440Z,67.20
2018-05-17T07:43:58.851Z,66.80
2018-05-17T07:48:04.751Z,65.70
2018-05-17T07:52:11.266Z,65.00
2018-05-17T07:56:21.771Z,63.90
2018-05-17T08:00:31.261Z,63.70
2018-05-17T08:04:40.541Z,63.70
2018-05-17T08:08:57.684Z,64.50
2018-05-17T08:13:04.040Z,64.40
2018-05-17T08:17:13.604Z,63.50
2018-05-17T08:21:23.490Z,62.40
2018-05-17T08:25:26.264Z,62.40
2018-05-17T08:29:36.482Z,61.90
2018-05-17T08:34:03.036Z,61.20
2018-05-17T08:38:18.664Z,60.50
2018-05-17T08:42:31.854Z,59.00
2018-05-17T08:51:13.027Z,60.30
2018-05-17T08:55:27.943Z,61.60
2018-05-17T08:59:34.690Z,61.10
2018-05-17T09:03:42.024Z,59.20
2018-05-17T09:07:52.962Z,59.80
2018-05-17T09:11:57.235Z,59.80
2018-05-17T09:16:09.764Z,56.90
2018-05-17T09:20:22.087Z,59.00
2018-05-17T09:24:32.200Z,57.30
2018-05-17T09:28:43.548Z,57.40
2018-05-17T09:32:53.616Z,57.50
2018-05-17T09:36:56.813Z,56.30
2018-05-17T09:41:08.700Z,56.80
2018-05-17T09:45:20.567Z,56.60
2018-05-17T09:49:30.427Z,55.00
2018-05-17T09:53:36.803Z,54.10
2018-05-17T09:57:44.151Z,55.00
2018-05-17T10:01:49.855Z,53.00
2018-05-17T10:05:56.430Z,53.00
2018-05-17T10:10:03.686Z,50.40
2018-05-17T10:14:10.159Z,50.40
2018-05-17T10:18:19.259Z,50.50
2018-05-17T10:22:29.994Z,52.20
2018-05-17T10:26:39.727Z,48.70
2018-05-17T10:30:48.446Z,48.70
2018-05-17T10:34:55.225Z,48.50
2018-05-17T10:39:05.469Z,48.40
2018-05-17T10:43:14.988Z,48.10
2018-05-17T10:47:20.907Z,49.20
2018-05-17T10:51:33.740Z,45.50
2018-05-17T10:55:53.352Z,43.80
2018-05-17T10:59:57.156Z,43.80
2018-05-17T11:04:04.097Z,44.40
2018-05-17T11:08:09.633Z,46.50
2018-05-17T11:12:22.360Z,43.10
2018-05-17T11:16:31.321Z,46.90
2018-05-17T11:20:40.284Z,44.70
2018-05-17T11:24:46.855Z,43.30
2018-05-17T11:28:57.641Z,43.30
2018-05-17T11:33:06.463Z,44.50
2018-05-17T11:37:12.733Z,42.90
2018-05-17T11:41:22.348Z,41.00
2018-05-17T11:45:34.881Z,43.70
2018-05-17T11:49:40.525Z,41.50
2018-05-17T11:53:49.821Z,42.40
2018-05-17T11:58:02.261Z,39.90
2018-05-17T12:02:08.638Z,37.30
2018-05-17T12:06:18.317Z,39.40
2018-05-17T12:10:24.007Z,39.70
2018-05-17T12:14:36.884Z,37.90
2018-05-17T12:18:43.055Z,38.90
2018-05-17T12:22:53.758Z,38.20
2018-05-17T12:27:02.665Z,37.70
2018-05-17T12:31:09.028Z,38.30
2018-05-17T12:35:18.649Z,40.80
2018-05-17T12:39:28.235Z,40.10
2018-05-17T12:43:37.907Z,40.50
2018-05-17T12:47:43.951Z,42.70
2018-05-17T12:51:49.912Z,38.00
2018-05-17T12:56:03.186Z,38.10
2018-05-17T13:00:12.288Z,37.80
2018-05-17T13:04:21.699Z,37.80
2018-05-17T13:08:30.087Z,37.50
2018-05-17T13:12:39.567Z,37.60
2018-05-17T13:16:46.041Z,37.90
2018-05-17T13:20:55.755Z,37.30
2018-05-17T13:25:04.983Z,36.80
2018-05-17T13:29:12.101Z,37.10
2018-05-17T13:33:22.880Z,36.60
2018-05-17T13:37:33.172Z,35.80
2018-05-17T13:41:38.664Z,36.10
2018-05-17T13:45:51.586Z,36.80
2018-05-17T13:50:01.557Z,39.40
2018-05-17T13:54:07.855Z,42.20
2018-05-17T13:58:18.711Z,39.60
2018-05-17T14:02:27.986Z,37.20
2018-05-17T14:06:36.788Z,39.10
2018-05-17T14:10:45.969Z,36.70
2018-05-17T14:14:55.921Z,39.40
2018-05-17T14:19:05.648Z,39.40
2018-05-17T14:23:12.152Z,40.50
2018-05-17T14:27:22.541Z,40.80
2018-05-17T14:31:28.125Z,40.10
2018-05-17T14:35:43.182Z,40.80
2018-05-17T14:39:47.244Z,40.50
2018-05-17T14:44:00.536Z,42.60
2018-05-17T14:48:07.511Z,40.90
2018-05-17T14:52:13.720Z,40.90
2018-05-17T14:56:23.015Z,41.90
2018-05-17T15:00:32.876Z,41.10
2018-05-17T15:04:42.744Z,39.20
2018-05-17T15:08:49.612Z,39.10
2018-05-17T15:13:02.040Z,42.40
2018-05-17T15:17:06.781Z,41.90
2018-05-17T15:21:19.685Z,41.90
2018-05-17T15:25:28.940Z,40.80
2018-05-17T15:29:38.875Z,41.20
2018-05-17T15:33:48.160Z,40.60
2018-05-17T15:37:57.292Z,41.40
2018-05-17T15:42:07.867Z,43.40
2018-05-17T15:46:16.228Z,42.20
2018-05-17T15:50:35.001Z,42.10
2018-05-17T15:54:52.270Z,42.50
2018-05-17T15:59:08.448Z,41.90
2018-05-17T16:03:15.687Z,43.50
2018-05-17T16:07:25.942Z,43.50
2018-05-17T16:11:35.091Z,43.50
2018-05-17T16:15:45.908Z,44.10
2018-05-17T16:19:55.259Z,43.20
2018-05-17T16:24:04.845Z,44.10
2018-05-17T16:28:12.079Z,46.30
2018-05-17T16:32:23.360Z,44.80
2018-05-17T16:36:32.130Z,44.80
2018-05-17T16:45:17.811Z,44.50
2018-05-17T16:49:28.083Z,44.50
2018-05-17T16:53:34.827Z,44.90
2018-05-17T16:57:50.336Z,44.90
2018-05-17T17:01:56.649Z,45.10
2018-05-17T17:06:02.607Z,45.80
2018-05-17T17:10:11.696Z,45.90
2018-05-17T17:14:17.777Z,46.80
2018-05-17T17:18:28.029Z,47.20
2018-05-17T17:22:38.280Z,48.10
2018-05-17T17:26:44.917Z,48.70
2018-05-17T17:30:55.307Z,48.70
2018-05-17T17:35:06.493Z,49.20
2018-05-17T17:39:12.344Z,49.60
2018-05-17T17:43:24.116Z,50.00
2018-05-17T17:47:33.313Z,50.50
2018-05-17T17:51:39.528Z,51.20
2018-05-17T17:55:50.443Z,52.60
2018-05-17T18:00:03.263Z,52.70
2018-05-17T18:04:09.628Z,55.00
2018-05-17T18:08:15.438Z,55.00
2018-05-17T18:12:25.941Z,55.00
2018-05-17T18:16:38.846Z,55.10
2018-05-17T18:20:48.079Z,56.20
2018-05-17T18:24:57.229Z,56.20
2018-05-17T18:29:07.249Z,56.50
2018-05-17T18:33:13.732Z,57.40
2018-05-17T18:37:26.255Z,57.30
2018-05-17T18:41:32.330Z,57.30
2018-05-17T18:45:42.978Z,57.00
2018-05-17T18:49:51.479Z,57.00
2018-05-17T18:54:02.077Z,57.50
2018-05-17T18:58:07.935Z,57.50
2018-05-17T19:02:16.640Z,57.80
2018-05-17T19:06:25.631Z,57.70
2018-05-17T19:10:36.728Z,58.20
2018-05-17T19:14:45.037Z,58.30
2018-05-17T19:18:52.057Z,59.10
2018-05-17T19:22:58.430Z,59.00
2018-05-17T19:27:11.498Z,59.20
2018-05-17T19:31:19.853Z,59.40
2018-05-17T19:35:30.455Z,59.70
2018-05-17T19:39:34.360Z,59.80
2018-05-17T19:43:44.532Z,59.70
2018-05-17T19:47:55.456Z,60.00
2018-05-17T19:52:01.575Z,60.50
2018-05-17T19:56:13.420Z,60.30
2018-05-17T20:00:18.039Z,60.30
2018-05-17T20:04:30.569Z,60.50
2018-05-17T20:07:06.173Z,60.10
2018-05-17T20:09:42.479Z,60.50
2018-05-17T20:12:15.897Z,60.40
2018-05-17T20:14:51.731Z,60.80
2018-05-17T20:17:30.588Z,61.20
2018-05-17T20:20:02.859Z,61.10
2018-05-17T20:22:40.352Z,61.90
2018-05-17T20:25:15.947Z,61.80
2018-05-17T20:27:47.293Z,62.10
2018-05-17T20:30:22.214Z,62.60
2018-05-17T20:35:37.484Z,63.10
2018-05-17T20:38:08.851Z,62.60
2018-05-17T20:43:03.489Z,63.00
2018-05-17T20:45:31.864Z,62.60
2018-05-17T20:48:00.724Z,62.60
2018-05-17T20:50:34.341Z,62.30
2018-05-17T20:53:01.965Z,62.40
2018-05-17T20:55:30.365Z,63.20
2018-05-17T20:57:58.398Z,63.20
2018-05-17T21:00:26.829Z,63.10
2018-05-17T21:03:00.925Z,63.10
2018-05-17T21:07:56.098Z,63.80
2018-05-17T21:10:23.756Z,64.40
2018-05-17T21:12:52.206Z,64.70
2018-05-17T21:17:47.257Z,65.00
2018-05-17T21:20:14.889Z,65.50
2018-05-17T21:22:42.548Z,65.20
2018-05-17T21:27:44.759Z,65.10
2018-05-17T21:30:15.466Z,65.50
2018-05-17T21:32:44.907Z,65.30
2018-05-17T21:35:15.797Z,65.20
2018-05-17T21:37:47.774Z,65.10
2018-05-17T21:40:22.029Z,65.50
2018-05-17T21:43:00.093Z,65.40
2018-05-17T21:45:36.291Z,65.80
2018-05-17T21:48:12.554Z,65.80
2018-05-17T21:50:47.986Z,65.40
2018-05-17T21:53:23.712Z,66.70
2018-05-17T21:55:59.640Z,65.60
2018-05-17T21:58:35.368Z,65.60
2018-05-17T22:01:10.202Z,66.00
2018-05-17T22:03:45.925Z,66.20
2018-05-17T22:06:20.739Z,66.20
2018-05-17T22:08:56.273Z,66.30
2018-05-17T22:11:31.196Z,66.90
2018-05-17T22:14:07.048Z,66.50
2018-05-17T22:16:42.054Z,66.90
2018-05-17T22:19:16.767Z,66.40
2018-05-17T22:21:54.353Z,66.80
2018-05-17T22:24:28.277Z,66.80
2018-05-17T22:27:04.293Z,67.00
2018-05-17T22:29:40.845Z,67.70
2018-05-17T22:32:15.764Z,67.70
2018-05-17T22:34:50.395Z,67.60
2018-05-17T22:37:25.674Z,68.20
2018-05-17T22:40:01.593Z,68.50
2018-05-17T22:42:36.830Z,68.50
2018-05-17T22:45:11.982Z,68.60
2018-05-17T22:47:47.105Z,69.00
2018-05-17T22:50:21.679Z,69.30
2018-05-17T22:52:55.886Z,68.70
2018-05-17T22:55:33.745Z,69.20
2018-05-17T22:58:15.318Z,69.30
2018-05-17T23:00:46.525Z,70.00
2018-05-17T23:03:21.208Z,69.30
2018-05-17T23:05:56.961Z,69.80
2018-05-17T23:08:33.019Z,69.50
2018-05-17T23:11:03.658Z,69.20
2018-05-17T23:16:18.970Z,69.90
2018-05-17T23:18:54.578Z,70.40
2018-05-17T23:21:30.054Z,70.40
2018-05-17T23:24:06.013Z,71.00
2018-05-17T23:26:37.371Z,70.80
2018-05-17T23:29:15.962Z,69.80
2018-05-17T23:31:51.664Z,69.80
2018-05-17T23:34:27.158Z,69.50
2018-05-17T23:37:08.818Z,69.90
2018-05-17T23:39:38.011Z,70.00
2018-05-17T23:42:12.449Z,70.60
2018-05-17T23:44:50.357Z,70.60
2018-05-17T23:47:25.798Z,71.60
2018-05-17T23:49:59.448Z,72.00
2018-05-17T23:52:36.341Z,72.40
2018-05-17T23:55:07.685Z,72.40
2018-05-17T23:57:43.205Z,72.70
